Time;durP1;ratioP1;P1;durP2;ratioP2;P2;SDS_P1;SDS_P2;PMS_P1;PMS_P2;Temp;Humidity;BMP_temperature;BMP_pressure;BME280_temperature;BME280_humidity;BME280_pressure;Samples;Min_cycle;Max_cycle;Signal;HPM_P1;HPM_P2
2021/06/21 00:01:06;;;;;;;7.40;2.95;;;19.80;99.90;;;;;;12395921;28;20133;-39
2021/06/21 00:07:08;;;;;;;7.47;2.95;;;19.80;99.90;;;;;;12395426;28;20099;-39
2021/06/21 00:13:10;;;;;;;11.65;2.75;;;19.80;99.90;;;;;;12391244;28;20661;-39
2021/06/21 00:19:12;;;;;;;8.55;2.80;;;19.60;99.90;;;;;;12388101;28;20108;-39
2021/06/21 00:25:15;;;;;;;5.65;2.20;;;19.40;99.90;;;;;;12392582;28;20168;-39
2021/06/21 00:31:18;;;;;;;6.88;2.58;;;19.40;99.90;;;;;;12388106;28;20779;-39
2021/06/21 00:37:20;;;;;;;7.65;3.22;;;19.30;99.90;;;;;;12390263;28;20093;-39
2021/06/21 00:43:21;;;;;;;6.32;2.80;;;19.30;99.90;;;;;;12385555;28;20133;-39
2021/06/21 00:49:23;;;;;;;5.40;2.50;;;19.30;99.90;;;;;;12394460;28;20156;-39
2021/06/21 00:55:26;;;;;;;5.90;2.55;;;19.20;99.90;;;;;;12394948;28;20161;-39
2021/06/21 01:01:28;;;;;;;11.03;3.03;;;19.10;99.90;;;;;;12390693;28;20242;-39
2021/06/21 01:07:30;;;;;;;6.10;2.67;;;19.00;99.90;;;;;;12388709;28;20497;-39
2021/06/21 01:14:04;;;;;;;6.60;3.30;;;18.80;99.90;;;;;;12390196;28;20054;-40
2021/06/21 01:20:15;;;;;;;9.13;3.60;;;18.60;99.90;;;;;;12388637;28;20432;-39
2021/06/21 01:26:25;;;;;;;5.95;3.38;;;18.30;99.90;;;;;;12389078;28;20141;-42
2021/06/21 01:33:03;;;;;;;11.10;3.65;;;18.10;99.90;;;;;;12387188;28;20184;-39
2021/06/21 01:39:06;;;;;;;10.13;4.25;;;18.00;99.90;;;;;;12372310;28;20062;-39
2021/06/21 01:45:09;;;;;;;12.82;4.30;;;18.10;99.90;;;;;;12396584;28;20509;-39
2021/06/21 01:51:13;;;;;;;7.25;4.15;;;17.90;99.90;;;;;;12396640;28;20186;-39
2021/06/21 01:57:21;;;;;;;8.73;4.25;;;17.80;99.90;;;;;;12393908;28;20897;-39
2021/06/21 02:03:24;;;;;;;12.07;4.53;;;17.60;99.90;;;;;;12391539;28;20050;-39
2021/06/21 02:09:27;;;;;;;8.63;4.30;;;17.50;99.90;;;;;;12391735;28;20129;-39
2021/06/21 02:15:30;;;;;;;9.05;4.68;;;17.50;99.90;;;;;;12396257;28;20101;-40
2021/06/21 02:21:32;;;;;;;10.45;4.53;;;17.50;99.90;;;;;;12398229;28;20054;-39
2021/06/21 02:27:36;;;;;;;10.35;4.85;;;17.50;99.90;;;;;;12391554;28;20115;-39
2021/06/21 02:33:38;;;;;;;;;;;17.60;99.90;;;;;;12398963;28;20133;-40
2021/06/21 02:39:44;;;;;;;11.77;5.30;;;17.50;99.90;;;;;;12394741;28;19930;-40
2021/06/21 02:45:46;;;;;;;10.05;5.57;;;17.40;99.90;;;;;;12389655;28;20097;-39
2021/06/21 02:51:53;;;;;;;11.25;6.00;;;17.30;99.90;;;;;;12394571;28;20128;-39
2021/06/21 02:58:24;;;;;;;11.93;6.32;;;17.30;99.90;;;;;;12396161;28;20141;-41
2021/06/21 03:04:27;;;;;;;17.42;6.90;;;17.40;99.90;;;;;;12392042;28;20099;-39
2021/06/21 03:10:30;;;;;;;11.83;7.20;;;17.60;99.90;;;;;;12395309;28;20429;-39
2021/06/21 03:16:33;;;;;;;10.15;6.57;;;17.50;99.90;;;;;;12392742;28;20220;-39
2021/06/21 03:22:38;;;;;;;9.25;7.03;;;17.50;99.90;;;;;;12392293;28;20123;-39
2021/06/21 03:28:39;;;;;;;;;;;17.40;99.90;;;;;;12388168;28;20046;-39
2021/06/21 03:34:41;;;;;;;11.73;7.45;;;17.40;99.90;;;;;;12390253;28;19922;-38
2021/06/21 03:40:45;;;;;;;13.93;6.95;;;17.30;99.90;;;;;;12389499;28;20064;-39
2021/06/21 03:46:46;;;;;;;8.68;7.00;;;17.30;99.90;;;;;;12388915;28;20510;-39
2021/06/21 03:52:51;;;;;;;9.70;6.72;;;17.20;99.90;;;;;;12389253;28;20096;-39
2021/06/21 03:58:53;;;;;;;14.02;7.05;;;17.10;99.90;;;;;;12386935;28;20058;-39
2021/06/21 04:04:55;;;;;;;8.55;6.35;;;17.10;99.90;;;;;;12387355;28;20624;-39
2021/06/21 04:10:57;;;;;;;9.55;6.55;;;17.10;99.90;;;;;;12389417;28;20386;-39
2021/06/21 04:16:58;;;;;;;7.45;5.60;;;17.20;99.90;;;;;;12389985;28;20137;-41
2021/06/21 04:23:01;;;;;;;9.10;5.90;;;17.10;99.90;;;;;;12392232;28;20141;-38
2021/06/21 04:29:04;;;;;;;7.72;5.57;;;17.10;99.90;;;;;;12393732;28;20172;-39
2021/06/21 04:35:25;;;;;;;7.75;4.85;;;17.20;99.90;;;;;;12391403;28;20065;-39
2021/06/21 04:41:27;;;;;;;5.38;4.68;;;17.20;99.90;;;;;;12395625;28;20199;-39
2021/06/21 04:47:29;;;;;;;6.88;4.15;;;17.10;99.90;;;;;;12386547;28;20181;-39
2021/06/21 04:53:30;;;;;;;6.65;3.88;;;17.20;99.90;;;;;;12384913;28;20143;-40
2021/06/21 04:59:32;;;;;;;8.70;4.25;;;17.10;99.90;;;;;;12391155;28;20445;-40
2021/06/21 05:05:34;;;;;;;6.25;3.97;;;17.10;99.90;;;;;;12394555;28;20050;-39
2021/06/21 05:11:36;;;;;;;3.97;3.38;;;17.00;99.90;;;;;;12395340;28;20045;-39
2021/06/21 05:17:38;;;;;;;6.60;4.00;;;17.00;99.90;;;;;;12392592;28;20081;-39
2021/06/21 05:23:40;;;;;;;6.45;3.67;;;17.10;99.90;;;;;;12396886;28;20054;-40
2021/06/21 05:29:42;;;;;;;6.70;3.90;;;17.40;99.90;;;;;;12387567;28;20127;-39
2021/06/21 05:35:44;;;;;;;6.93;4.80;;;17.30;99.90;;;;;;12395905;28;20046;-38
2021/06/21 05:41:46;;;;;;;11.65;6.00;;;17.30;99.90;;;;;;12394615;28;20050;-38
2021/06/21 05:47:47;;;;;;;10.23;6.03;;;17.40;99.90;;;;;;12399544;28;20120;-39
2021/06/21 05:53:49;;;;;;;5.85;5.28;;;17.40;99.90;;;;;;12398596;28;20052;-38
2021/06/21 05:59:51;;;;;;;9.50;6.32;;;17.10;99.90;;;;;;12389893;28;20045;-39
2021/06/21 06:05:53;;;;;;;7.85;5.93;;;17.00;99.90;;;;;;12386720;28;20052;-39
2021/06/21 06:11:55;;;;;;;7.85;6.05;;;17.00;99.90;;;;;;12392993;28;20046;-39
2021/06/21 06:17:57;;;;;;;11.60;5.70;;;17.00;99.90;;;;;;12394639;28;20432;-39
2021/06/21 06:23:59;;;;;;;15.30;6.40;;;17.00;99.90;;;;;;12391400;28;20056;-39
2021/06/21 06:30:02;;;;;;;8.18;5.80;;;16.90;99.90;;;;;;12394616;28;20177;-39
2021/06/21 06:36:05;;;;;;;11.15;6.30;;;17.10;99.90;;;;;;12389789;28;20141;-38
2021/06/21 06:42:07;;;;;;;10.57;5.60;;;17.10;99.90;;;;;;12393610;28;20132;-39
2021/06/21 06:48:09;;;;;;;8.02;5.60;;;17.00;99.90;;;;;;12382448;28;20057;-38
2021/06/21 07:00:17;;;;;;;7.93;5.80;;;17.00;99.90;;;;;;12394599;28;20111;-39
2021/06/21 07:06:19;;;;;;;9.63;5.07;;;17.10;99.90;;;;;;12388154;28;20496;-38
2021/06/21 07:12:21;;;;;;;10.57;5.00;;;17.30;99.90;;;;;;12393821;28;20161;-39
2021/06/21 07:18:23;;;;;;;13.57;4.72;;;17.30;99.90;;;;;;12394747;28;20057;-41
2021/06/21 07:24:25;;;;;;;5.25;3.80;;;17.20;99.90;;;;;;12384425;28;20054;-39
2021/06/21 07:30:26;;;;;;;5.20;3.70;;;17.30;99.90;;;;;;12389670;28;20694;-38
2021/06/21 07:36:28;;;;;;;4.63;3.50;;;17.40;99.90;;;;;;12394201;28;20046;-38
2021/06/21 07:42:30;;;;;;;8.02;4.03;;;17.40;99.90;;;;;;12389625;28;20140;-39
2021/06/21 07:48:34;;;;;;;5.97;4.35;;;16.90;99.90;;;;;;12398008;28;20049;-40
2021/06/21 07:54:36;;;;;;;;;;;17.20;99.90;;;;;;12391585;28;20046;-39
2021/06/21 08:00:39;;;;;;;5.53;3.83;;;17.30;99.90;;;;;;12392111;28;20845;-40
2021/06/21 08:06:41;;;;;;;7.47;3.20;;;17.20;99.90;;;;;;12391272;28;20142;-39
2021/06/21 08:12:46;;;;;;;5.03;2.10;;;17.00;99.90;;;;;;12392318;28;20146;-40
2021/06/21 08:18:48;;;;;;;4.85;2.08;;;17.40;99.90;;;;;;12394397;28;20121;-39
2021/06/21 08:24:51;;;;;;;2.22;1.42;;;17.60;99.90;;;;;;12393088;28;20467;-40
2021/06/21 08:30:53;;;;;;;1.80;1.23;;;17.50;99.90;;;;;;12392286;28;20057;-38
2021/06/21 08:36:54;;;;;;;2.40;1.50;;;17.70;99.90;;;;;;12387964;28;20392;-39
2021/06/21 08:42:56;;;;;;;1.85;1.35;;;17.80;99.90;;;;;;12393064;28;20128;-38
2021/06/21 08:49:01;;;;;;;2.75;1.90;;;18.40;99.90;;;;;;12401173;28;20100;-39
2021/06/21 08:55:05;;;;;;;2.15;1.40;;;18.60;99.90;;;;;;12400655;28;20844;-39
2021/06/21 09:01:07;;;;;;;2.00;1.80;;;18.50;99.90;;;;;;12395067;28;20046;-39
2021/06/21 09:07:22;;;;;;;5.13;1.70;;;18.50;99.90;;;;;;12399752;28;20471;-39
2021/06/21 09:13:32;;;;;;;2.25;1.80;;;18.60;99.90;;;;;;12398164;28;20152;-38
2021/06/21 09:20:07;;;;;;;5.90;2.15;;;18.80;99.90;;;;;;12398927;28;20050;-40
2021/06/21 09:26:21;;;;;;;2.83;2.35;;;18.40;99.90;;;;;;12393860;28;20050;-39
2021/06/21 09:32:38;;;;;;;;;;;18.60;99.90;;;;;;12401903;28;20110;-38
2021/06/21 09:38:40;;;;;;;3.03;2.63;;;18.70;99.90;;;;;;12400841;28;19921;-39
2021/06/21 09:44:52;;;;;;;4.03;3.35;;;18.40;99.90;;;;;;12400202;28;20129;-40
2021/06/21 09:50:55;;;;;;;3.13;2.60;;;18.30;99.90;;;;;;12404651;28;20054;-42
2021/06/21 09:56:58;;;;;;;5.90;3.35;;;18.70;99.90;;;;;;12396811;28;20088;-39
2021/06/21 10:03:07;;;;;;;4.73;4.23;;;18.40;99.90;;;;;;12402899;28;20489;-40
2021/06/21 10:09:09;;;;;;;5.05;4.20;;;19.00;99.90;;;;;;12398111;28;20513;-39
2021/06/21 10:15:13;;;;;;;4.85;4.40;;;19.50;99.90;;;;;;12401600;28;20642;-39
2021/06/21 10:21:15;;;;;;;5.60;4.35;;;19.60;99.90;;;;;;12400744;28;20050;-39
2021/06/21 10:27:19;;;;;;;5.05;4.15;;;19.80;99.90;;;;;;12396462;28;20049;-39
2021/06/21 10:33:22;;;;;;;6.15;4.10;;;20.20;99.90;;;;;;12393139;28;20100;-40
2021/06/21 10:39:29;;;;;;;5.13;4.60;;;20.20;99.90;;;;;;12384463;28;20448;-40
2021/06/21 10:45:30;;;;;;;5.22;4.25;;;19.70;99.90;;;;;;12398276;28;20474;-40
2021/06/21 10:51:40;;;;;;;6.03;4.55;;;19.60;99.90;;;;;;12397102;28;20579;-39
2021/06/21 10:57:42;;;;;;;6.32;4.70;;;19.50;99.90;;;;;;12392594;28;20123;-41
2021/06/21 11:03:44;;;;;;;5.97;5.15;;;19.40;99.90;;;;;;12398655;28;20137;-40
2021/06/21 11:09:48;;;;;;;5.95;5.32;;;19.20;99.90;;;;;;12395354;28;20134;-39
2021/06/21 11:16:15;;;;;;;7.53;6.82;;;18.90;99.90;;;;;;12395028;28;20054;-39
2021/06/21 11:22:37;;;;;;;8.50;7.10;;;18.90;99.90;;;;;;12390528;28;20050;-39
2021/06/21 11:28:41;;;;;;;7.85;6.68;;;19.10;99.90;;;;;;12383844;28;20433;-39
2021/06/21 11:35:02;;;;;;;9.27;7.15;;;19.10;99.90;;;;;;12383481;28;20080;-39
2021/06/21 11:41:19;;;;;;;10.73;9.52;;;19.40;99.90;;;;;;12379496;28;20084;-39
2021/06/21 11:47:29;;;;;;;13.25;9.35;;;19.30;99.90;;;;;;12384167;28;20141;-39
2021/06/21 11:53:31;;;;;;;9.38;8.48;;;19.50;99.90;;;;;;12387253;28;20054;-39
2021/06/21 11:59:44;;;;;;;12.27;9.88;;;19.40;99.90;;;;;;12388765;28;20149;-40
2021/06/21 12:05:54;;;;;;;11.55;10.35;;;19.30;99.90;;;;;;12388622;28;21104;-39
2021/06/21 12:11:56;;;;;;;11.77;10.52;;;18.90;99.90;;;;;;12396306;28;20752;-39
2021/06/21 12:17:58;;;;;;;11.98;10.20;;;18.80;99.90;;;;;;12392557;28;20712;-39
2021/06/21 12:24:23;;;;;;;13.45;12.13;;;18.80;99.90;;;;;;12389171;28;20443;-39
2021/06/21 12:30:34;;;;;;;11.90;10.70;;;19.00;99.90;;;;;;12385613;28;20169;-39
2021/06/21 12:36:36;;;;;;;12.23;11.02;;;19.60;99.90;;;;;;12386090;28;20232;-39
2021/06/21 12:42:38;;;;;;;8.73;7.93;;;19.90;99.90;;;;;;12392262;28;20563;-39
2021/06/21 12:48:43;;;;;;;9.68;8.65;;;20.30;99.90;;;;;;12395067;28;20157;-39
2021/06/21 12:54:45;;;;;;;9.52;8.63;;;20.20;99.90;;;;;;12392566;28;20129;-39
2021/06/21 13:00:50;;;;;;;10.35;8.20;;;20.10;99.90;;;;;;12394548;28;20045;-39
2021/06/21 13:06:57;;;;;;;12.20;9.57;;;19.70;99.90;;;;;;12391545;28;20128;-39
2021/06/21 13:13:03;;;;;;;10.82;8.95;;;19.20;99.90;;;;;;12388473;28;20125;-39
2021/06/21 13:19:14;;;;;;;11.57;9.75;;;19.00;99.90;;;;;;12388836;28;20050;-39
2021/06/21 13:25:30;;;;;;;12.90;11.55;;;18.70;99.90;;;;;;12387506;28;20092;-39
2021/06/21 13:31:32;;;;;;;13.05;11.32;;;19.10;99.90;;;;;;12393249;28;20046;-40
2021/06/21 13:37:34;;;;;;;12.82;11.63;;;19.80;99.90;;;;;;12401071;28;20107;-39
2021/06/21 13:43:35;;;;;;;13.13;11.82;;;20.00;99.90;;;;;;12402653;28;20136;-41
2021/06/21 13:50:00;;;;;;;14.15;12.75;;;19.60;99.90;;;;;;12400717;28;20133;-39
2021/06/21 13:56:26;;;;;;;12.10;10.98;;;19.30;99.90;;;;;;12453062;28;20101;-39
2021/06/21 14:02:36;;;;;;;12.23;11.02;;;19.10;99.90;;;;;;12448663;28;20053;-39
2021/06/21 14:08:39;;;;;;;8.25;7.32;;;18.90;99.90;;;;;;12448516;28;20061;-39
2021/06/21 14:14:41;;;;;;;7.30;6.60;;;18.80;99.90;;;;;;12447817;28;20057;-39
2021/06/21 14:20:45;;;;;;;5.43;4.93;;;18.50;99.90;;;;;;12445449;28;20936;-39
2021/06/21 14:26:52;;;;;;;6.57;4.65;;;18.50;99.90;;;;;;12444317;28;20046;-39
2021/06/21 14:32:54;;;;;;;5.13;4.63;;;18.20;99.90;;;;;;12448126;28;20133;-38
2021/06/21 14:38:56;;;;;;;5.60;5.10;;;18.20;99.90;;;;;;12438347;28;20133;-39
2021/06/21 14:44:58;;;;;;;7.65;6.88;;;18.20;99.90;;;;;;12447722;28;20091;-38
2021/06/21 14:51:05;;;;;;;6.20;5.60;;;18.20;99.90;;;;;;12441127;28;20501;-38
2021/06/21 14:57:07;;;;;;;6.65;6.00;;;18.10;99.90;;;;;;12447621;28;20224;-40
2021/06/21 15:03:09;;;;;;;6.07;5.47;;;18.00;99.90;;;;;;12446790;28;20196;-40
2021/06/21 15:09:11;;;;;;;6.20;5.60;;;18.00;99.90;;;;;;12449507;28;20128;-39
2021/06/21 15:15:16;;;;;;;6.00;5.35;;;17.90;99.90;;;;;;12444748;28;20053;-40
2021/06/21 15:21:19;;;;;;;4.72;4.22;;;17.90;99.90;;;;;;12451027;28;20087;-39
2021/06/21 15:27:21;;;;;;;3.80;1.70;;;17.70;99.90;;;;;;12443259;28;20080;-38
2021/06/21 15:33:24;;;;;;;1.65;1.30;;;17.50;99.90;;;;;;12442052;28;20366;-38
2021/06/21 15:39:26;;;;;;;1.45;1.00;;;17.40;99.90;;;;;;12445084;28;20617;-39
2021/06/21 15:45:28;;;;;;;2.08;1.30;;;17.30;99.90;;;;;;12447755;28;20084;-40
2021/06/21 15:51:35;;;;;;;3.00;1.33;;;17.10;99.90;;;;;;12437612;28;20061;-39
2021/06/21 15:57:58;;;;;;;2.17;1.55;;;16.90;99.90;;;;;;12437489;28;20103;-40
2021/06/21 16:04:00;;;;;;;3.72;1.80;;;16.70;99.90;;;;;;12438825;28;20046;-40
2021/06/21 16:10:04;;;;;;;4.15;2.10;;;16.60;99.90;;;;;;12435130;28;20471;-38
2021/06/21 16:16:06;;;;;;;;;;;16.50;99.90;;;;;;12430667;28;20152;-39
2021/06/21 16:22:08;;;;;;;2.90;2.25;;;16.30;99.90;;;;;;12439435;28;19925;-40
2021/06/21 16:28:11;;;;;;;4.05;1.98;;;16.30;99.90;;;;;;12426414;28;20045;-39
2021/06/21 16:34:13;;;;;;;2.60;2.10;;;16.10;99.90;;;;;;12438540;28;20138;-39
2021/06/21 16:40:16;;;;;;;2.97;2.20;;;16.10;99.90;;;;;;12430241;28;20053;-39
2021/06/21 16:46:18;;;;;;;2.67;1.90;;;16.10;99.90;;;;;;12434008;28;20227;-40
2021/06/21 16:52:20;;;;;;;2.10;1.52;;;16.00;99.90;;;;;;12433269;28;20103;-39
2021/06/21 16:58:22;;;;;;;1.50;0.85;;;16.00;99.90;;;;;;12438848;28;20060;-39
2021/06/21 17:04:24;;;;;;;1.15;0.90;;;15.70;99.90;;;;;;12442092;28;20136;-39
2021/06/21 17:10:28;;;;;;;0.98;0.88;;;15.70;99.90;;;;;;12448963;28;20107;-39
2021/06/21 17:16:30;;;;;;;1.05;0.50;;;15.60;99.90;;;;;;12446711;28;20057;-39
2021/06/21 17:22:33;;;;;;;0.55;0.40;;;15.50;99.90;;;;;;12442618;28;20045;-39
2021/06/21 17:28:36;;;;;;;0.57;0.50;;;15.40;99.90;;;;;;12447929;28;20049;-39
2021/06/21 17:34:38;;;;;;;0.43;0.40;;;15.30;99.90;;;;;;12444391;28;20054;-39
2021/06/21 17:40:40;;;;;;;1.42;0.40;;;15.30;99.90;;;;;;12450137;28;20053;-39
2021/06/21 17:46:42;;;;;;;5.25;0.50;;;15.30;99.90;;;;;;12449062;28;20347;-38
2021/06/21 17:52:44;;;;;;;1.33;0.45;;;15.20;99.90;;;;;;12445077;28;20418;-39
2021/06/21 17:58:46;;;;;;;0.60;0.60;;;15.10;99.90;;;;;;12449299;28;20152;-38
2021/06/21 18:04:48;;;;;;;6.65;0.82;;;15.00;99.90;;;;;;12445362;28;20058;-40
2021/06/21 18:10:52;;;;;;;3.67;1.10;;;14.90;99.90;;;;;;12442264;28;20058;-41
2021/06/21 18:16:54;;;;;;;2.25;0.90;;;14.80;99.90;;;;;;12446619;28;20050;-40
2021/06/21 18:22:56;;;;;;;2.58;1.27;;;14.80;99.90;;;;;;12442936;28;20063;-39
2021/06/21 18:28:59;;;;;;;3.08;1.20;;;14.80;99.90;;;;;;12441297;28;20052;-41
2021/06/21 18:35:00;;;;;;;2.53;1.38;;;14.70;99.90;;;;;;12441319;28;20128;-38
2021/06/21 18:41:02;;;;;;;1.95;1.30;;;14.70;99.90;;;;;;12442464;28;20099;-39
2021/06/21 18:47:04;;;;;;;3.78;1.58;;;14.50;99.90;;;;;;12438903;28;20050;-39
2021/06/21 18:53:06;;;;;;;2.00;1.40;;;14.40;99.90;;;;;;12436410;28;20156;-39
2021/06/21 18:59:08;;;;;;;2.10;1.25;;;14.40;99.90;;;;;;12435672;28;20062;-43
2021/06/21 19:05:11;;;;;;;2.10;1.45;;;14.50;99.90;;;;;;12440763;28;20724;-39
2021/06/21 19:11:14;;;;;;;2.97;2.00;;;14.50;99.90;;;;;;12441745;28;20681;-39
2021/06/21 19:17:16;;;;;;;6.13;2.58;;;14.30;99.90;;;;;;12441298;28;20054;-40
2021/06/21 19:23:18;;;;;;;4.05;2.40;;;14.20;99.90;;;;;;12442657;28;20491;-40
2021/06/21 19:29:20;;;;;;;3.80;2.40;;;14.10;99.90;;;;;;12440963;28;20045;-39
2021/06/21 19:35:22;;;;;;;6.18;2.28;;;14.10;99.90;;;;;;12439267;28;20053;-38
2021/06/21 19:41:24;;;;;;;4.05;2.00;;;14.10;99.90;;;;;;12443178;28;20050;-38
2021/06/21 19:47:26;;;;;;;3.47;1.90;;;14.10;99.90;;;;;;12436560;28;20172;-39
2021/06/21 19:53:29;;;;;;;4.85;1.90;;;14.10;99.90;;;;;;12443909;28;20485;-39
2021/06/21 19:59:31;;;;;;;2.60;2.15;;;14.10;99.90;;;;;;12440667;28;20164;-39
2021/06/21 20:05:33;;;;;;;5.50;2.28;;;14.10;99.90;;;;;;12438210;28;20108;-39
2021/06/21 20:11:35;;;;;;;4.80;3.90;;;14.00;99.90;;;;;;12440072;28;20057;-39
2021/06/21 20:17:38;;;;;;;5.35;4.70;;;14.10;99.90;;;;;;12441819;28;20132;-38
2021/06/21 20:23:40;;;;;;;6.28;4.43;;;14.10;99.90;;;;;;12438014;28;20140;-40
2021/06/21 20:29:42;;;;;;;4.93;3.72;;;14.00;99.90;;;;;;12439145;28;20422;-40
2021/06/21 20:35:49;;;;;;;7.03;3.03;;;14.10;99.90;;;;;;12437637;28;20596;-38
2021/06/21 20:41:51;;;;;;;4.40;2.78;;;14.00;99.90;;;;;;12432011;28;20049;-39
2021/06/21 20:47:53;;;;;;;4.90;3.30;;;14.00;99.90;;;;;;12431676;28;20045;-40
2021/06/21 20:53:56;;;;;;;4.45;3.80;;;14.00;99.90;;;;;;12435438;28;20057;-39
2021/06/21 20:59:57;;;;;;;7.57;5.93;;;13.90;99.90;;;;;;12442568;28;20188;-39
2021/06/21 21:05:59;;;;;;;7.68;6.78;;;14.00;99.90;;;;;;12432235;28;20081;-43
2021/06/21 21:12:01;;;;;;;11.40;6.85;;;13.90;99.90;;;;;;12439968;28;20104;-40
2021/06/21 21:18:04;;;;;;;6.57;4.90;;;13.80;99.90;;;;;;12435570;28;20156;-39
2021/06/21 21:24:06;;;;;;;7.85;5.40;;;13.80;99.90;;;;;;12437553;28;20054;-39
2021/06/21 21:30:10;;;;;;;9.18;5.13;;;13.70;99.90;;;;;;12436530;28;20140;-39
2021/06/21 21:36:12;;;;;;;7.25;5.63;;;13.70;99.90;;;;;;12436426;28;20449;-40
2021/06/21 21:42:14;;;;;;;13.18;5.78;;;13.70;99.90;;;;;;12441227;28;20061;-39
2021/06/21 21:48:16;;;;;;;9.55;5.90;;;13.60;99.90;;;;;;12440139;28;20102;-38
2021/06/21 21:54:19;;;;;;;10.00;6.03;;;13.50;99.90;;;;;;12449596;28;20048;-39
2021/06/21 22:00:22;;;;;;;12.05;6.47;;;13.40;99.90;;;;;;12442353;28;20064;-39
2021/06/21 22:06:24;;;;;;;14.10;6.60;;;13.50;99.90;;;;;;12442992;28;20234;-39
2021/06/21 22:12:26;;;;;;;13.18;6.70;;;13.40;99.90;;;;;;12442117;28;20481;-40
2021/06/21 22:18:29;;;;;;;12.70;6.95;;;13.40;99.90;;;;;;12441941;28;20596;-38
2021/06/21 22:24:31;;;;;;;13.32;6.80;;;13.30;99.90;;;;;;12443250;28;20076;-40
2021/06/21 22:30:34;;;;;;;16.27;7.00;;;13.30;99.90;;;;;;12447029;28;20102;-40
2021/06/21 22:36:37;;;;;;;12.10;7.32;;;13.30;99.90;;;;;;12444178;28;20119;-39
2021/06/21 22:42:38;;;;;;;13.25;7.57;;;13.30;99.90;;;;;;12444263;28;20459;-38
2021/06/21 22:48:41;;;;;;;12.85;7.20;;;13.30;99.90;;;;;;12438328;28;20604;-39
2021/06/21 22:54:42;;;;;;;12.88;6.90;;;13.30;99.90;;;;;;12448745;28;22255;-39
2021/06/21 23:00:44;;;;;;;11.27;6.50;;;13.30;99.90;;;;;;12444080;28;20051;-39
2021/06/21 23:06:46;;;;;;;14.93;6.13;;;13.30;99.90;;;;;;12440215;28;20136;-39
2021/06/21 23:12:49;;;;;;;14.00;6.30;;;13.40;99.90;;;;;;12448775;28;20114;-39
2021/06/21 23:18:51;;;;;;;15.45;6.80;;;13.30;99.90;;;;;;12438036;28;20087;-39
2021/06/21 23:24:53;;;;;;;12.13;6.25;;;13.30;99.90;;;;;;12443373;28;20129;-41
2021/06/21 23:30:55;;;;;;;18.58;6.70;;;13.40;99.90;;;;;;12445605;28;20129;-38
2021/06/21 23:36:57;;;;;;;17.05;6.40;;;13.40;99.90;;;;;;12445997;28;20049;-39
2021/06/21 23:42:59;;;;;;;16.85;6.47;;;13.30;99.90;;;;;;12442407;28;20065;-39
2021/06/21 23:49:01;;;;;;;14.30;5.60;;;13.30;99.90;;;;;;12440175;28;20075;-38
2021/06/21 23:55:04;;;;;;;13.80;5.60;;;13.30;99.90;;;;;;12443613;28;20575;-39
